sensor_id;sensor_type;location;lat;lon;timestamp;pressure;altitude;pressure_sealevel;temperature;humidity
32330;BME280;18807;52.434;13.238;2023-03-30T00:00:30;100709.44;;;9.46;100.00
32330;BME280;18807;52.434;13.238;2023-03-30T00:08:05;100705.00;;;9.47;100.00
32330;BME280;18807;52.434;13.238;2023-03-30T00:15:39;100706.81;;;9.48;100.00
32330;BME280;18807;52.434;13.238;2023-03-30T00:23:15;100691.63;;;9.45;100.00
32330;BME280;18807;52.434;13.238;2023-03-30T00:30:48;100669.34;;;9.40;100.00
32330;BME280;18807;52.434;13.238;2023-03-30T00:38:25;100669.28;;;9.37;100.00
32330;BME280;18807;52.434;13.238;2023-03-30T00:45:59;100656.78;;;9.35;100.00
32330;BME280;18807;52.434;13.238;2023-03-30T00:53:38;100625.41;;;9.19;100.00
32330;BME280;18807;52.434;13.238;2023-03-30T01:01:15;100604.84;;;9.12;100.00
32330;BME280;18807;52.434;13.238;2023-03-30T01:08:58;100591.50;;;9.10;100.00
32330;BME280;18807;52.434;13.238;2023-03-30T01:16:38;100582.69;;;9.14;100.00
32330;BME280;18807;52.434;13.238;2023-03-30T01:24:36;100588.91;;;9.13;100.00
32330;BME280;18807;52.434;13.238;2023-03-30T01:32:51;100563.81;;;9.02;100.00
32330;BME280;18807;52.434;13.238;2023-03-30T01:40:35;100542.41;;;8.98;100.00
32330;BME280;18807;52.434;13.238;2023-03-30T01:48:14;100538.84;;;8.96;100.00
32330;BME280;18807;52.434;13.238;2023-03-30T01:55:54;100534.44;;;8.98;100.00
32330;BME280;18807;52.434;13.238;2023-03-30T02:03:32;100538.06;;;9.01;100.00
32330;BME280;18807;52.434;13.238;2023-03-30T02:11:09;100533.59;;;8.99;100.00
32330;BME280;18807;52.434;13.238;2023-03-30T02:18:43;100518.41;;;8.96;100.00
32330;BME280;18807;52.434;13.238;2023-03-30T02:26:20;100491.78;;;8.96;100.00
32330;BME280;18807;52.434;13.238;2023-03-30T02:34:07;100483.81;;;8.98;100.00
32330;BME280;18807;52.434;13.238;2023-03-30T02:41:57;100466.94;;;8.96;100.00
32330;BME280;18807;52.434;13.238;2023-03-30T02:49:45;100466.06;;;8.97;100.00
32330;BME280;18807;52.434;13.238;2023-03-30T02:57:29;100461.69;;;9.00;100.00
32330;BME280;18807;52.434;13.238;2023-03-30T03:05:07;100449.28;;;9.02;100.00
32330;BME280;18807;52.434;13.238;2023-03-30T03:12:44;100441.28;;;9.02;100.00
32330;BME280;18807;52.434;13.238;2023-03-30T03:20:18;100430.59;;;9.01;100.00
32330;BME280;18807;52.434;13.238;2023-03-30T03:27:54;100412.81;;;8.98;100.00
32330;BME280;18807;52.434;13.238;2023-03-30T03:35:28;100404.81;;;8.98;100.00
32330;BME280;18807;52.434;13.238;2023-03-30T03:43:04;100397.78;;;9.02;100.00
32330;BME280;18807;52.434;13.238;2023-03-30T03:50:38;100381.81;;;9.03;100.00
32330;BME280;18807;52.434;13.238;2023-03-30T03:58:15;100368.50;;;9.03;100.00
32330;BME280;18807;52.434;13.238;2023-03-30T04:05:49;100345.44;;;9.05;100.00
32330;BME280;18807;52.434;13.238;2023-03-30T04:13:24;100349.88;;;9.05;100.00
32330;BME280;18807;52.434;13.238;2023-03-30T04:20:59;100342.75;;;9.05;100.00
32330;BME280;18807;52.434;13.238;2023-03-30T04:28:36;100328.56;;;9.05;100.00
32330;BME280;18807;52.434;13.238;2023-03-30T04:36:11;100322.25;;;9.00;100.00
32330;BME280;18807;52.434;13.238;2023-03-30T04:43:50;100314.31;;;9.01;100.00
32330;BME280;18807;52.434;13.238;2023-03-30T04:51:24;100324.09;;;9.04;100.00
32330;BME280;18807;52.434;13.238;2023-03-30T04:59:00;100329.47;;;9.07;100.00
32330;BME280;18807;52.434;13.238;2023-03-30T05:06:33;100301.97;;;9.08;100.00
32330;BME280;18807;52.434;13.238;2023-03-30T05:14:09;100282.44;;;9.09;100.00
32330;BME280;18807;52.434;13.238;2023-03-30T05:21:43;100257.56;;;9.10;100.00
32330;BME280;18807;52.434;13.238;2023-03-30T05:29:19;100258.50;;;9.12;100.00
32330;BME280;18807;52.434;13.238;2023-03-30T05:36:53;100276.31;;;9.16;100.00
32330;BME280;18807;52.434;13.238;2023-03-30T05:44:31;100271.84;;;9.13;100.00
32330;BME280;18807;52.434;13.238;2023-03-30T05:52:05;100268.28;;;9.14;100.00
32330;BME280;18807;52.434;13.238;2023-03-30T05:59:40;100248.75;;;9.12;100.00
32330;BME280;18807;52.434;13.238;2023-03-30T06:07:15;100245.16;;;9.10;100.00
32330;BME280;18807;52.434;13.238;2023-03-30T06:14:51;100240.75;;;9.12;100.00
32330;BME280;18807;52.434;13.238;2023-03-30T06:22:25;100231.00;;;9.14;100.00
32330;BME280;18807;52.434;13.238;2023-03-30T06:30:06;100220.47;;;9.25;100.00
32330;BME280;18807;52.434;13.238;2023-03-30T06:37:41;100215.25;;;9.35;100.00
32330;BME280;18807;52.434;13.238;2023-03-30T06:45:17;100222.44;;;9.44;100.00
32330;BME280;18807;52.434;13.238;2023-03-30T06:52:51;100214.56;;;9.54;100.00
32330;BME280;18807;52.434;13.238;2023-03-30T07:00:28;100201.34;;;9.66;100.00
32330;BME280;18807;52.434;13.238;2023-03-30T07:08:02;100185.47;;;9.77;100.00
32330;BME280;18807;52.434;13.238;2023-03-30T07:15:38;100170.50;;;10.00;100.00
32330;BME280;18807;52.434;13.238;2023-03-30T07:23:12;100156.53;;;10.31;100.00
32330;BME280;18807;52.434;13.238;2023-03-30T07:30:50;100155.84;;;10.67;100.00
32330;BME280;18807;52.434;13.238;2023-03-30T07:38:42;100161.34;;;11.04;100.00
32330;BME280;18807;52.434;13.238;2023-03-30T07:46:17;100145.38;;;11.27;100.00
32330;BME280;18807;52.434;13.238;2023-03-30T07:53:51;100143.63;;;11.54;100.00
32330;BME280;18807;52.434;13.238;2023-03-30T08:01:26;100143.63;;;12.40;100.00
32330;BME280;18807;52.434;13.238;2023-03-30T08:09:01;100139.44;;;13.66;94.02
32330;BME280;18807;52.434;13.238;2023-03-30T08:16:37;100137.78;;;14.48;83.90
32330;BME280;18807;52.434;13.238;2023-03-30T08:24:11;100120.91;;;14.37;85.86
32330;BME280;18807;52.434;13.238;2023-03-30T08:31:47;100110.13;;;15.72;78.60
32330;BME280;18807;52.434;13.238;2023-03-30T08:39:21;100120.47;;;14.72;77.20
32330;BME280;18807;52.434;13.238;2023-03-30T08:47:16;100110.78;;;15.27;76.34
32330;BME280;18807;52.434;13.238;2023-03-30T08:54:54;100110.38;;;15.57;73.57
32330;BME280;18807;52.434;13.238;2023-03-30T09:02:33;100120.56;;;15.34;74.52
32330;BME280;18807;52.434;13.238;2023-03-30T09:10:11;100127.19;;;15.07;76.08
32330;BME280;18807;52.434;13.238;2023-03-30T09:18:11;100116.69;;;14.91;76.41
32330;BME280;18807;52.434;13.238;2023-03-30T09:25:49;100108.53;;;14.97;78.71
32330;BME280;18807;52.434;13.238;2023-03-30T09:33:38;100110.22;;;15.04;78.99
32330;BME280;18807;52.434;13.238;2023-03-30T09:41:27;100116.69;;;14.91;80.06
32330;BME280;18807;52.434;13.238;2023-03-30T09:49:15;100124.84;;;14.83;80.89
32330;BME280;18807;52.434;13.238;2023-03-30T09:56:49;100120.31;;;14.87;81.23
32330;BME280;18807;52.434;13.238;2023-03-30T10:04:30;100121.06;;;14.99;81.01
32330;BME280;18807;52.434;13.238;2023-03-30T10:12:04;100122.03;;;14.94;81.07
32330;BME280;18807;52.434;13.238;2023-03-30T10:19:40;100122.03;;;14.92;81.10
32330;BME280;18807;52.434;13.238;2023-03-30T10:27:31;100131.88;;;14.95;81.12
32330;BME280;18807;52.434;13.238;2023-03-30T10:35:09;100125.50;;;15.00;82.21
32330;BME280;18807;52.434;13.238;2023-03-30T10:42:43;100110.94;;;15.15;81.42
32330;BME280;18807;52.434;13.238;2023-03-30T10:50:26;100099.03;;;15.37;82.02
32330;BME280;18807;52.434;13.238;2023-03-30T10:58:18;100103.25;;;15.54;80.14
32330;BME280;18807;52.434;13.238;2023-03-30T11:05:59;100097.91;;;15.51;79.86
32330;BME280;18807;52.434;13.238;2023-03-30T11:13:37;100103.16;;;15.59;80.98
32330;BME280;18807;52.434;13.238;2023-03-30T11:21:19;100094.81;;;15.75;81.00
32330;BME280;18807;52.434;13.238;2023-03-30T11:29:02;100093.72;;;15.87;80.59
32330;BME280;18807;52.434;13.238;2023-03-30T11:36:44;100084.50;;;16.00;80.31
32330;BME280;18807;52.434;13.238;2023-03-30T11:44:21;100055.44;;;16.16;81.17
32330;BME280;18807;52.434;13.238;2023-03-30T11:52:03;100051.75;;;16.23;81.02
32330;BME280;18807;52.434;13.238;2023-03-30T11:59:44;100036.03;;;16.46;79.00
32330;BME280;18807;52.434;13.238;2023-03-30T12:07:30;100002.13;;;16.75;78.51
32330;BME280;18807;52.434;13.238;2023-03-30T12:15:23;99988.13;;;16.98;76.42
32330;BME280;18807;52.434;13.238;2023-03-30T12:23:10;99985.63;;;17.25;73.57
32330;BME280;18807;52.434;13.238;2023-03-30T12:30:54;99970.16;;;17.33;72.44
32330;BME280;18807;52.434;13.238;2023-03-30T12:38:40;99962.72;;;17.44;68.55
32330;BME280;18807;52.434;13.238;2023-03-30T12:46:22;99935.31;;;17.59;68.02
32330;BME280;18807;52.434;13.238;2023-03-30T12:54:21;99933.91;;;17.77;68.06
32330;BME280;18807;52.434;13.238;2023-03-30T13:02:07;99901.38;;;17.81;66.63
32330;BME280;18807;52.434;13.238;2023-03-30T13:09:55;99905.16;;;18.07;66.62
32330;BME280;18807;52.434;13.238;2023-03-30T13:17:48;99888.13;;;18.03;66.66
32330;BME280;18807;52.434;13.238;2023-03-30T13:25:38;99879.53;;;17.89;65.36
32330;BME280;18807;52.434;13.238;2023-03-30T13:33:30;99892.44;;;17.78;68.00
32330;BME280;18807;52.434;13.238;2023-03-30T13:41:20;99891.06;;;17.63;67.22
32330;BME280;18807;52.434;13.238;2023-03-30T13:49:10;99993.53;;;17.33;71.31
32330;BME280;18807;52.434;13.238;2023-03-30T13:56:54;100006.94;;;14.55;100.00
32330;BME280;18807;52.434;13.238;2023-03-30T14:04:31;100000.78;;;13.62;100.00
32330;BME280;18807;52.434;13.238;2023-03-30T14:12:07;100024.31;;;13.34;100.00
32330;BME280;18807;52.434;13.238;2023-03-30T14:19:48;100012.88;;;13.11;100.00
32330;BME280;18807;52.434;13.238;2023-03-30T14:27:34;99993.22;;;13.08;100.00
32330;BME280;18807;52.434;13.238;2023-03-30T14:35:14;99986.06;;;13.11;100.00
32330;BME280;18807;52.434;13.238;2023-03-30T14:42:52;100009.25;;;13.15;100.00
32330;BME280;18807;52.434;13.238;2023-03-30T14:50:26;100003.03;;;13.12;100.00
32330;BME280;18807;52.434;13.238;2023-03-30T14:58:02;99998.59;;;13.09;100.00
32330;BME280;18807;52.434;13.238;2023-03-30T15:05:37;100010.22;;;13.10;100.00
32330;BME280;18807;52.434;13.238;2023-03-30T15:13:19;100014.72;;;13.02;100.00
32330;BME280;18807;52.434;13.238;2023-03-30T15:20:58;100019.31;;;12.82;100.00
32330;BME280;18807;52.434;13.238;2023-03-30T15:28:41;100033.66;;;12.67;100.00
32330;BME280;18807;52.434;13.238;2023-03-30T15:36:36;100047.97;;;12.65;100.00
32330;BME280;18807;52.434;13.238;2023-03-30T15:44:16;100052.44;;;12.60;100.00
32330;BME280;18807;52.434;13.238;2023-03-30T15:51:51;100054.28;;;12.56;100.00
32330;BME280;18807;52.434;13.238;2023-03-30T15:59:30;100046.22;;;12.56;100.00
32330;BME280;18807;52.434;13.238;2023-03-30T16:07:09;100051.59;;;12.53;100.00
32330;BME280;18807;52.434;13.238;2023-03-30T16:14:49;100054.09;;;12.85;100.00
32330;BME280;18807;52.434;13.238;2023-03-30T16:22:23;100060.28;;;12.97;100.00
32330;BME280;18807;52.434;13.238;2023-03-30T16:29:58;100063.03;;;12.87;100.00
32330;BME280;18807;52.434;13.238;2023-03-30T16:37:50;100072.03;;;12.75;100.00
32330;BME280;18807;52.434;13.238;2023-03-30T16:45:26;100062.22;;;12.74;100.00
32330;BME280;18807;52.434;13.238;2023-03-30T16:53:00;100064.00;;;12.77;100.00
32330;BME280;18807;52.434;13.238;2023-03-30T17:00:39;100064.88;;;12.82;100.00
32330;BME280;18807;52.434;13.238;2023-03-30T17:08:19;100062.22;;;12.76;100.00
32330;BME280;18807;52.434;13.238;2023-03-30T17:15:55;100070.25;;;12.74;100.00
32330;BME280;18807;52.434;13.238;2023-03-30T17:23:31;100078.31;;;12.70;100.00
32330;BME280;18807;52.434;13.238;2023-03-30T17:31:13;100098.88;;;12.63;100.00
32330;BME280;18807;52.434;13.238;2023-03-30T17:38:49;100114.09;;;12.54;100.00
32330;BME280;18807;52.434;13.238;2023-03-30T17:46:24;100116.81;;;12.45;100.00
32330;BME280;18807;52.434;13.238;2023-03-30T17:53:59;100114.19;;;12.33;100.00
32330;BME280;18807;52.434;13.238;2023-03-30T18:01:34;100120.41;;;12.26;100.00
32330;BME280;18807;52.434;13.238;2023-03-30T18:09:13;100126.69;;;12.16;100.00
32330;BME280;18807;52.434;13.238;2023-03-30T18:16:49;100124.94;;;12.04;100.00
32330;BME280;18807;52.434;13.238;2023-03-30T18:24:37;100125.84;;;11.97;100.00
32330;BME280;18807;52.434;13.238;2023-03-30T18:32:12;100118.69;;;11.84;100.00
32330;BME280;18807;52.434;13.238;2023-03-30T18:39:46;100133.88;;;11.74;100.00
32330;BME280;18807;52.434;13.238;2023-03-30T18:47:22;100146.34;;;11.71;100.00
32330;BME280;18807;52.434;13.238;2023-03-30T18:54:57;100157.91;;;11.61;100.00
32330;BME280;18807;52.434;13.238;2023-03-30T19:02:32;100173.94;;;11.56;100.00
32330;BME280;18807;52.434;13.238;2023-03-30T19:10:10;100183.75;;;11.53;100.00
32330;BME280;18807;52.434;13.238;2023-03-30T19:18:04;100221.13;;;11.38;100.00
32330;BME280;18807;52.434;13.238;2023-03-30T19:25:38;100238.94;;;11.24;100.00
32330;BME280;18807;52.434;13.238;2023-03-30T19:33:14;100227.28;;;11.13;100.00
32330;BME280;18807;52.434;13.238;2023-03-30T19:40:51;100224.56;;;11.04;100.00
32330;BME280;18807;52.434;13.238;2023-03-30T19:48:44;100224.56;;;10.96;100.00
32330;BME280;18807;52.434;13.238;2023-03-30T19:56:17;100225.47;;;11.00;100.00
32330;BME280;18807;52.434;13.238;2023-03-30T20:03:53;100229.94;;;10.99;100.00
32330;BME280;18807;52.434;13.238;2023-03-30T20:11:27;100237.03;;;10.94;100.00
32330;BME280;18807;52.434;13.238;2023-03-30T20:19:02;100237.88;;;10.84;100.00
32330;BME280;18807;52.434;13.238;2023-03-30T20:26:47;100246.72;;;10.77;100.00
32330;BME280;18807;52.434;13.238;2023-03-30T20:34:23;100251.13;;;10.68;100.00
32330;BME280;18807;52.434;13.238;2023-03-30T20:41:59;100238.63;;;10.61;100.00
32330;BME280;18807;52.434;13.238;2023-03-30T20:49:35;100240.38;;;10.59;100.00
32330;BME280;18807;52.434;13.238;2023-03-30T20:57:13;100227.00;;;10.53;100.00
32330;BME280;18807;52.434;13.238;2023-03-30T21:04:48;100227.84;;;10.47;100.00
32330;BME280;18807;52.434;13.238;2023-03-30T21:12:24;100225.16;;;10.44;100.00
32330;BME280;18807;52.434;13.238;2023-03-30T21:20:00;100228.69;;;10.42;100.00
32330;BME280;18807;52.434;13.238;2023-03-30T21:27:33;100228.66;;;10.40;100.00
32330;BME280;18807;52.434;13.238;2023-03-30T21:35:09;100213.53;;;10.36;100.00
32330;BME280;18807;52.434;13.238;2023-03-30T21:42:43;100209.97;;;10.37;100.00
32330;BME280;18807;52.434;13.238;2023-03-30T21:50:18;100208.19;;;10.36;100.00
32330;BME280;18807;52.434;13.238;2023-03-30T21:57:52;100197.47;;;10.32;100.00
32330;BME280;18807;52.434;13.238;2023-03-30T22:05:27;100196.56;;;10.28;100.00
32330;BME280;18807;52.434;13.238;2023-03-30T22:13:02;100188.56;;;10.27;100.00
32330;BME280;18807;52.434;13.238;2023-03-30T22:20:37;100182.31;;;10.26;100.00
32330;BME280;18807;52.434;13.238;2023-03-30T22:28:12;100173.41;;;10.24;100.00
32330;BME280;18807;52.434;13.238;2023-03-30T22:35:47;100160.03;;;10.20;100.00
32330;BME280;18807;52.434;13.238;2023-03-30T22:43:23;100162.69;;;10.18;100.00
32330;BME280;18807;52.434;13.238;2023-03-30T22:51:01;100157.31;;;10.15;100.00
32330;BME280;18807;52.434;13.238;2023-03-30T22:58:35;100155.56;;;10.14;100.00
32330;BME280;18807;52.434;13.238;2023-03-30T23:06:11;100145.78;;;10.15;100.00
32330;BME280;18807;52.434;13.238;2023-03-30T23:14:02;100138.63;;;10.13;100.00
32330;BME280;18807;52.434;13.238;2023-03-30T23:21:38;100132.44;;;10.15;100.00
32330;BME280;18807;52.434;13.238;2023-03-30T23:29:12;100131.53;;;10.14;100.00
32330;BME280;18807;52.434;13.238;2023-03-30T23:36:48;100118.19;;;10.16;100.00
32330;BME280;18807;52.434;13.238;2023-03-30T23:44:22;100121.75;;;10.13;100.00
32330;BME280;18807;52.434;13.238;2023-03-30T23:51:57;100122.63;;;10.13;100.00
32330;BME280;18807;52.434;13.238;2023-03-30T23:59:31;100116.41;;;10.13;100.00
